sensor_id;sensor_type;location;lat;lon;timestamp;P1;durP1;ratioP1;P2;durP2;ratioP2
15536;SDS011;7870;52.448;13.270;2023-11-19T00:00:52;10.07;;;7.40;;
15536;SDS011;7870;52.448;13.270;2023-11-19T00:03:19;8.80;;;7.05;;
15536;SDS011;7870;52.448;13.270;2023-11-19T00:05:46;9.07;;;7.10;;
15536;SDS011;7870;52.448;13.270;2023-11-19T00:08:14;9.77;;;7.63;;
15536;SDS011;7870;52.448;13.270;2023-11-19T00:10:40;10.70;;;7.20;;
15536;SDS011;7870;52.448;13.270;2023-11-19T00:13:07;8.70;;;6.63;;
15536;SDS011;7870;52.448;13.270;2023-11-19T00:15:34;10.68;;;7.53;;
15536;SDS011;7870;52.448;13.270;2023-11-19T00:18:00;10.63;;;7.13;;
15536;SDS011;7870;52.448;13.270;2023-11-19T00:20:31;8.63;;;7.30;;
15536;SDS011;7870;52.448;13.270;2023-11-19T00:22:57;7.90;;;6.55;;
15536;SDS011;7870;52.448;13.270;2023-11-19T00:25:24;7.57;;;6.68;;
15536;SDS011;7870;52.448;13.270;2023-11-19T00:27:51;9.70;;;6.72;;
15536;SDS011;7870;52.448;13.270;2023-11-19T00:30:20;9.80;;;7.00;;
15536;SDS011;7870;52.448;13.270;2023-11-19T00:32:46;8.77;;;6.45;;
15536;SDS011;7870;52.448;13.270;2023-11-19T00:35:13;9.35;;;7.22;;
15536;SDS011;7870;52.448;13.270;2023-11-19T00:37:46;7.95;;;6.20;;
15536;SDS011;7870;52.448;13.270;2023-11-19T00:40:14;8.00;;;6.22;;
15536;SDS011;7870;52.448;13.270;2023-11-19T00:42:42;10.05;;;6.60;;
15536;SDS011;7870;52.448;13.270;2023-11-19T00:45:09;7.72;;;6.43;;
15536;SDS011;7870;52.448;13.270;2023-11-19T00:47:37;7.55;;;6.28;;
15536;SDS011;7870;52.448;13.270;2023-11-19T00:50:04;7.95;;;6.30;;
15536;SDS011;7870;52.448;13.270;2023-11-19T00:52:32;6.95;;;5.78;;
15536;SDS011;7870;52.448;13.270;2023-11-19T00:54:58;7.30;;;5.97;;
15536;SDS011;7870;52.448;13.270;2023-11-19T00:57:25;8.82;;;6.40;;
15536;SDS011;7870;52.448;13.270;2023-11-19T00:59:53;8.07;;;6.15;;
15536;SDS011;7870;52.448;13.270;2023-11-19T01:02:19;7.85;;;6.00;;
15536;SDS011;7870;52.448;13.270;2023-11-19T01:04:46;7.95;;;6.07;;
15536;SDS011;7870;52.448;13.270;2023-11-19T01:07:12;8.18;;;5.53;;
15536;SDS011;7870;52.448;13.270;2023-11-19T01:09:41;7.82;;;6.25;;
15536;SDS011;7870;52.448;13.270;2023-11-19T01:12:08;7.18;;;5.90;;
15536;SDS011;7870;52.448;13.270;2023-11-19T01:14:36;7.88;;;5.97;;
15536;SDS011;7870;52.448;13.270;2023-11-19T01:17:03;7.30;;;5.88;;
15536;SDS011;7870;52.448;13.270;2023-11-19T01:19:31;7.40;;;5.40;;
15536;SDS011;7870;52.448;13.270;2023-11-19T01:21:58;7.40;;;5.28;;
15536;SDS011;7870;52.448;13.270;2023-11-19T01:24:24;8.02;;;4.65;;
15536;SDS011;7870;52.448;13.270;2023-11-19T01:26:54;5.85;;;4.03;;
15536;SDS011;7870;52.448;13.270;2023-11-19T01:29:21;6.10;;;4.43;;
15536;SDS011;7870;52.448;13.270;2023-11-19T01:31:47;7.20;;;4.85;;
15536;SDS011;7870;52.448;13.270;2023-11-19T01:34:14;7.10;;;4.78;;
15536;SDS011;7870;52.448;13.270;2023-11-19T01:36:41;7.22;;;5.22;;
15536;SDS011;7870;52.448;13.270;2023-11-19T01:39:07;5.95;;;4.90;;
15536;SDS011;7870;52.448;13.270;2023-11-19T01:41:34;6.55;;;4.90;;
15536;SDS011;7870;52.448;13.270;2023-11-19T01:44:02;6.60;;;4.70;;
15536;SDS011;7870;52.448;13.270;2023-11-19T01:46:29;6.00;;;4.93;;
15536;SDS011;7870;52.448;13.270;2023-11-19T01:48:56;7.20;;;4.63;;
15536;SDS011;7870;52.448;13.270;2023-11-19T01:51:23;6.93;;;5.35;;
15536;SDS011;7870;52.448;13.270;2023-11-19T01:53:50;6.57;;;5.30;;
15536;SDS011;7870;52.448;13.270;2023-11-19T01:56:16;7.53;;;5.45;;
15536;SDS011;7870;52.448;13.270;2023-11-19T01:58:44;6.72;;;4.75;;
15536;SDS011;7870;52.448;13.270;2023-11-19T02:01:11;6.95;;;5.68;;
15536;SDS011;7870;52.448;13.270;2023-11-19T02:03:38;7.72;;;5.47;;
15536;SDS011;7870;52.448;13.270;2023-11-19T02:06:06;5.85;;;4.82;;
15536;SDS011;7870;52.448;13.270;2023-11-19T02:08:33;9.88;;;5.82;;
15536;SDS011;7870;52.448;13.270;2023-11-19T02:11:00;6.65;;;4.93;;
15536;SDS011;7870;52.448;13.270;2023-11-19T02:13:27;6.70;;;5.28;;
15536;SDS011;7870;52.448;13.270;2023-11-19T02:15:54;5.85;;;4.70;;
15536;SDS011;7870;52.448;13.270;2023-11-19T02:18:23;7.75;;;5.78;;
15536;SDS011;7870;52.448;13.270;2023-11-19T02:20:54;7.60;;;5.40;;
15536;SDS011;7870;52.448;13.270;2023-11-19T02:23:28;8.90;;;4.72;;
15536;SDS011;7870;52.448;13.270;2023-11-19T02:25:59;6.35;;;5.35;;
15536;SDS011;7870;52.448;13.270;2023-11-19T02:28:29;6.72;;;5.57;;
15536;SDS011;7870;52.448;13.270;2023-11-19T02:30:56;8.38;;;5.32;;
15536;SDS011;7870;52.448;13.270;2023-11-19T02:33:23;6.57;;;4.72;;
15536;SDS011;7870;52.448;13.270;2023-11-19T02:35:51;6.88;;;5.10;;
15536;SDS011;7870;52.448;13.270;2023-11-19T02:38:17;7.65;;;4.97;;
15536;SDS011;7870;52.448;13.270;2023-11-19T02:40:44;6.68;;;4.90;;
15536;SDS011;7870;52.448;13.270;2023-11-19T02:43:10;6.78;;;5.25;;
15536;SDS011;7870;52.448;13.270;2023-11-19T02:45:37;6.47;;;4.88;;
15536;SDS011;7870;52.448;13.270;2023-11-19T02:48:04;6.25;;;4.75;;
15536;SDS011;7870;52.448;13.270;2023-11-19T02:50:32;6.90;;;4.85;;
15536;SDS011;7870;52.448;13.270;2023-11-19T02:52:59;6.50;;;4.70;;
15536;SDS011;7870;52.448;13.270;2023-11-19T02:55:27;6.18;;;4.97;;
15536;SDS011;7870;52.448;13.270;2023-11-19T02:57:56;6.25;;;5.00;;
15536;SDS011;7870;52.448;13.270;2023-11-19T03:00:25;10.00;;;5.13;;
15536;SDS011;7870;52.448;13.270;2023-11-19T03:03:02;6.00;;;4.72;;
15536;SDS011;7870;52.448;13.270;2023-11-19T03:05:43;6.78;;;4.90;;
15536;SDS011;7870;52.448;13.270;2023-11-19T03:08:10;8.82;;;5.40;;
15536;SDS011;7870;52.448;13.270;2023-11-19T03:10:48;6.28;;;4.95;;
15536;SDS011;7870;52.448;13.270;2023-11-19T03:13:15;5.82;;;4.45;;
15536;SDS011;7870;52.448;13.270;2023-11-19T03:15:43;6.93;;;5.45;;
15536;SDS011;7870;52.448;13.270;2023-11-19T03:18:10;8.50;;;5.63;;
15536;SDS011;7870;52.448;13.270;2023-11-19T03:20:36;7.10;;;4.95;;
15536;SDS011;7870;52.448;13.270;2023-11-19T03:23:03;11.43;;;6.43;;
15536;SDS011;7870;52.448;13.270;2023-11-19T03:25:29;7.82;;;5.72;;
15536;SDS011;7870;52.448;13.270;2023-11-19T03:28:00;7.18;;;5.40;;
15536;SDS011;7870;52.448;13.270;2023-11-19T03:30:28;9.20;;;5.22;;
15536;SDS011;7870;52.448;13.270;2023-11-19T03:32:58;9.65;;;5.85;;
15536;SDS011;7870;52.448;13.270;2023-11-19T03:35:26;8.15;;;6.75;;
15536;SDS011;7870;52.448;13.270;2023-11-19T03:37:54;8.10;;;5.93;;
15536;SDS011;7870;52.448;13.270;2023-11-19T03:40:20;10.00;;;6.60;;
15536;SDS011;7870;52.448;13.270;2023-11-19T03:42:47;9.90;;;6.63;;
15536;SDS011;7870;52.448;13.270;2023-11-19T03:45:14;8.38;;;7.10;;
15536;SDS011;7870;52.448;13.270;2023-11-19T03:47:43;7.72;;;6.32;;
15536;SDS011;7870;52.448;13.270;2023-11-19T03:50:09;7.57;;;6.00;;
15536;SDS011;7870;52.448;13.270;2023-11-19T03:52:36;9.45;;;6.00;;
15536;SDS011;7870;52.448;13.270;2023-11-19T03:55:06;9.75;;;6.75;;
15536;SDS011;7870;52.448;13.270;2023-11-19T03:57:35;9.27;;;6.85;;
15536;SDS011;7870;52.448;13.270;2023-11-19T04:00:01;8.68;;;6.20;;
15536;SDS011;7870;52.448;13.270;2023-11-19T04:02:38;7.88;;;6.07;;
15536;SDS011;7870;52.448;13.270;2023-11-19T04:05:05;10.18;;;6.22;;
15536;SDS011;7870;52.448;13.270;2023-11-19T04:07:36;10.85;;;6.45;;
15536;SDS011;7870;52.448;13.270;2023-11-19T04:10:03;9.57;;;6.90;;
15536;SDS011;7870;52.448;13.270;2023-11-19T04:12:30;8.38;;;6.32;;
15536;SDS011;7870;52.448;13.270;2023-11-19T04:14:56;9.93;;;6.53;;
15536;SDS011;7870;52.448;13.270;2023-11-19T04:17:26;10.00;;;5.88;;
15536;SDS011;7870;52.448;13.270;2023-11-19T04:19:54;9.93;;;6.95;;
15536;SDS011;7870;52.448;13.270;2023-11-19T04:22:21;7.80;;;6.50;;
15536;SDS011;7870;52.448;13.270;2023-11-19T04:24:47;8.18;;;6.68;;
15536;SDS011;7870;52.448;13.270;2023-11-19T04:27:14;8.98;;;6.32;;
15536;SDS011;7870;52.448;13.270;2023-11-19T04:29:40;8.27;;;6.28;;
15536;SDS011;7870;52.448;13.270;2023-11-19T04:32:07;9.23;;;6.28;;
15536;SDS011;7870;52.448;13.270;2023-11-19T04:34:34;7.65;;;6.03;;
15536;SDS011;7870;52.448;13.270;2023-11-19T04:37:00;12.13;;;7.65;;
15536;SDS011;7870;52.448;13.270;2023-11-19T04:39:38;10.35;;;6.35;;
15536;SDS011;7870;52.448;13.270;2023-11-19T04:42:05;10.95;;;7.10;;
15536;SDS011;7870;52.448;13.270;2023-11-19T04:44:33;8.27;;;5.72;;
15536;SDS011;7870;52.448;13.270;2023-11-19T04:46:59;8.13;;;6.10;;
15536;SDS011;7870;52.448;13.270;2023-11-19T04:49:26;10.63;;;6.45;;
15536;SDS011;7870;52.448;13.270;2023-11-19T04:51:53;12.98;;;6.85;;
15536;SDS011;7870;52.448;13.270;2023-11-19T04:54:20;9.95;;;6.10;;
15536;SDS011;7870;52.448;13.270;2023-11-19T04:56:47;11.90;;;6.65;;
15536;SDS011;7870;52.448;13.270;2023-11-19T04:59:13;13.13;;;7.05;;
15536;SDS011;7870;52.448;13.270;2023-11-19T05:01:40;12.15;;;7.15;;
15536;SDS011;7870;52.448;13.270;2023-11-19T05:04:07;9.68;;;5.65;;
15536;SDS011;7870;52.448;13.270;2023-11-19T05:06:34;8.30;;;5.85;;
15536;SDS011;7870;52.448;13.270;2023-11-19T05:09:01;10.80;;;6.45;;
15536;SDS011;7870;52.448;13.270;2023-11-19T05:11:32;8.38;;;5.03;;
15536;SDS011;7870;52.448;13.270;2023-11-19T05:14:02;9.30;;;5.75;;
15536;SDS011;7870;52.448;13.270;2023-11-19T05:16:30;7.55;;;4.90;;
15536;SDS011;7870;52.448;13.270;2023-11-19T05:18:57;8.77;;;5.45;;
15536;SDS011;7870;52.448;13.270;2023-11-19T05:21:23;7.20;;;5.28;;
15536;SDS011;7870;52.448;13.270;2023-11-19T05:23:50;6.28;;;4.43;;
15536;SDS011;7870;52.448;13.270;2023-11-19T05:26:17;7.90;;;5.40;;
15536;SDS011;7870;52.448;13.270;2023-11-19T05:28:47;11.20;;;6.53;;
15536;SDS011;7870;52.448;13.270;2023-11-19T05:31:14;6.38;;;5.18;;
15536;SDS011;7870;52.448;13.270;2023-11-19T05:33:42;10.20;;;5.88;;
15536;SDS011;7870;52.448;13.270;2023-11-19T05:36:10;10.13;;;5.75;;
15536;SDS011;7870;52.448;13.270;2023-11-19T05:38:37;7.63;;;5.35;;
15536;SDS011;7870;52.448;13.270;2023-11-19T05:41:03;7.70;;;5.43;;
15536;SDS011;7870;52.448;13.270;2023-11-19T05:43:31;10.38;;;6.10;;
15536;SDS011;7870;52.448;13.270;2023-11-19T05:45:58;12.48;;;5.78;;
15536;SDS011;7870;52.448;13.270;2023-11-19T05:48:25;9.70;;;5.90;;
15536;SDS011;7870;52.448;13.270;2023-11-19T05:50:52;7.70;;;5.97;;
15536;SDS011;7870;52.448;13.270;2023-11-19T05:53:19;7.80;;;5.80;;
15536;SDS011;7870;52.448;13.270;2023-11-19T05:55:46;9.02;;;6.15;;
15536;SDS011;7870;52.448;13.270;2023-11-19T05:58:24;10.43;;;7.00;;
15536;SDS011;7870;52.448;13.270;2023-11-19T06:00:52;8.13;;;5.95;;
15536;SDS011;7870;52.448;13.270;2023-11-19T06:03:19;9.75;;;6.00;;
15536;SDS011;7870;52.448;13.270;2023-11-19T06:05:45;7.57;;;5.32;;
15536;SDS011;7870;52.448;13.270;2023-11-19T06:08:12;10.65;;;6.65;;
15536;SDS011;7870;52.448;13.270;2023-11-19T06:10:42;9.95;;;6.38;;
15536;SDS011;7870;52.448;13.270;2023-11-19T06:13:09;8.07;;;5.33;;
15536;SDS011;7870;52.448;13.270;2023-11-19T06:15:37;9.43;;;6.70;;
15536;SDS011;7870;52.448;13.270;2023-11-19T06:18:04;8.35;;;5.75;;
15536;SDS011;7870;52.448;13.270;2023-11-19T06:20:32;9.70;;;6.68;;
15536;SDS011;7870;52.448;13.270;2023-11-19T06:23:09;8.10;;;5.70;;
15536;SDS011;7870;52.448;13.270;2023-11-19T06:25:35;8.25;;;6.13;;
15536;SDS011;7870;52.448;13.270;2023-11-19T06:28:02;9.02;;;5.30;;
15536;SDS011;7870;52.448;13.270;2023-11-19T06:30:29;8.23;;;5.68;;
15536;SDS011;7870;52.448;13.270;2023-11-19T06:32:58;9.38;;;6.72;;
15536;SDS011;7870;52.448;13.270;2023-11-19T06:35:25;7.93;;;5.70;;
15536;SDS011;7870;52.448;13.270;2023-11-19T06:37:52;13.02;;;6.18;;
15536;SDS011;7870;52.448;13.270;2023-11-19T06:40:19;13.77;;;5.80;;
15536;SDS011;7870;52.448;13.270;2023-11-19T06:42:46;7.97;;;6.30;;
15536;SDS011;7870;52.448;13.270;2023-11-19T06:45:13;8.82;;;6.30;;
15536;SDS011;7870;52.448;13.270;2023-11-19T06:47:39;7.10;;;5.65;;
15536;SDS011;7870;52.448;13.270;2023-11-19T06:50:06;8.75;;;5.97;;
15536;SDS011;7870;52.448;13.270;2023-11-19T06:52:33;7.43;;;5.30;;
15536;SDS011;7870;52.448;13.270;2023-11-19T06:55:00;8.82;;;5.85;;
15536;SDS011;7870;52.448;13.270;2023-11-19T06:57:30;6.93;;;4.97;;
15536;SDS011;7870;52.448;13.270;2023-11-19T06:59:58;9.20;;;4.85;;
15536;SDS011;7870;52.448;13.270;2023-11-19T07:02:25;7.85;;;5.32;;
15536;SDS011;7870;52.448;13.270;2023-11-19T07:04:53;7.85;;;4.72;;
15536;SDS011;7870;52.448;13.270;2023-11-19T07:07:20;7.28;;;5.43;;
15536;SDS011;7870;52.448;13.270;2023-11-19T07:09:47;8.25;;;5.38;;
15536;SDS011;7870;52.448;13.270;2023-11-19T07:12:14;6.72;;;5.15;;
15536;SDS011;7870;52.448;13.270;2023-11-19T07:14:40;7.28;;;4.80;;
15536;SDS011;7870;52.448;13.270;2023-11-19T07:17:08;6.50;;;4.60;;
15536;SDS011;7870;52.448;13.270;2023-11-19T07:19:37;6.90;;;4.93;;
15536;SDS011;7870;52.448;13.270;2023-11-19T07:22:05;6.07;;;4.80;;
15536;SDS011;7870;52.448;13.270;2023-11-19T07:24:32;8.32;;;5.93;;
15536;SDS011;7870;52.448;13.270;2023-11-19T07:26:59;6.38;;;4.85;;
15536;SDS011;7870;52.448;13.270;2023-11-19T07:29:25;6.43;;;5.15;;
15536;SDS011;7870;52.448;13.270;2023-11-19T07:31:55;8.25;;;5.20;;
15536;SDS011;7870;52.448;13.270;2023-11-19T07:34:23;9.20;;;5.05;;
15536;SDS011;7870;52.448;13.270;2023-11-19T07:36:50;6.82;;;5.03;;
15536;SDS011;7870;52.448;13.270;2023-11-19T07:39:17;8.43;;;5.78;;
15536;SDS011;7870;52.448;13.270;2023-11-19T07:41:44;9.15;;;5.35;;
15536;SDS011;7870;52.448;13.270;2023-11-19T07:44:10;7.55;;;5.40;;
15536;SDS011;7870;52.448;13.270;2023-11-19T07:46:37;8.27;;;4.95;;
15536;SDS011;7870;52.448;13.270;2023-11-19T07:49:04;7.75;;;5.88;;
15536;SDS011;7870;52.448;13.270;2023-11-19T07:51:31;5.75;;;4.78;;
15536;SDS011;7870;52.448;13.270;2023-11-19T07:53:57;6.93;;;4.53;;
15536;SDS011;7870;52.448;13.270;2023-11-19T07:56:24;9.30;;;6.25;;
15536;SDS011;7870;52.448;13.270;2023-11-19T07:58:51;8.48;;;5.50;;
15536;SDS011;7870;52.448;13.270;2023-11-19T08:01:18;6.47;;;4.82;;
15536;SDS011;7870;52.448;13.270;2023-11-19T08:03:45;6.93;;;5.05;;
15536;SDS011;7870;52.448;13.270;2023-11-19T08:06:14;9.80;;;5.32;;
15536;SDS011;7870;52.448;13.270;2023-11-19T08:08:41;5.75;;;4.70;;
15536;SDS011;7870;52.448;13.270;2023-11-19T08:11:07;6.18;;;4.63;;
15536;SDS011;7870;52.448;13.270;2023-11-19T08:13:34;6.57;;;4.82;;
15536;SDS011;7870;52.448;13.270;2023-11-19T08:16:01;7.32;;;5.25;;
15536;SDS011;7870;52.448;13.270;2023-11-19T08:18:27;8.18;;;5.28;;
15536;SDS011;7870;52.448;13.270;2023-11-19T08:20:54;7.40;;;5.35;;
15536;SDS011;7870;52.448;13.270;2023-11-19T08:23:24;6.55;;;5.07;;
15536;SDS011;7870;52.448;13.270;2023-11-19T08:25:51;6.63;;;5.05;;
15536;SDS011;7870;52.448;13.270;2023-11-19T08:28:22;7.13;;;5.35;;
15536;SDS011;7870;52.448;13.270;2023-11-19T08:30:48;6.32;;;4.32;;
15536;SDS011;7870;52.448;13.270;2023-11-19T08:33:15;11.27;;;10.20;;
15536;SDS011;7870;52.448;13.270;2023-11-19T08:35:42;7.00;;;4.97;;
15536;SDS011;7870;52.448;13.270;2023-11-19T08:38:08;7.55;;;5.40;;
15536;SDS011;7870;52.448;13.270;2023-11-19T08:40:35;7.38;;;5.35;;
15536;SDS011;7870;52.448;13.270;2023-11-19T08:43:01;8.15;;;5.32;;
15536;SDS011;7870;52.448;13.270;2023-11-19T08:45:28;7.35;;;4.60;;
15536;SDS011;7870;52.448;13.270;2023-11-19T08:47:54;6.30;;;4.80;;
15536;SDS011;7870;52.448;13.270;2023-11-19T08:50:21;6.72;;;4.50;;
15536;SDS011;7870;52.448;13.270;2023-11-19T08:52:48;5.60;;;4.68;;
15536;SDS011;7870;52.448;13.270;2023-11-19T08:55:14;6.32;;;3.92;;
15536;SDS011;7870;52.448;13.270;2023-11-19T08:57:41;5.97;;;4.03;;
15536;SDS011;7870;52.448;13.270;2023-11-19T09:00:08;6.68;;;4.10;;
15536;SDS011;7870;52.448;13.270;2023-11-19T09:02:35;5.10;;;4.07;;
15536;SDS011;7870;52.448;13.270;2023-11-19T09:05:04;5.78;;;3.55;;
15536;SDS011;7870;52.448;13.270;2023-11-19T09:07:31;5.05;;;3.50;;
15536;SDS011;7870;52.448;13.270;2023-11-19T09:09:58;5.72;;;3.60;;
15536;SDS011;7870;52.448;13.270;2023-11-19T09:12:24;5.75;;;3.50;;
15536;SDS011;7870;52.448;13.270;2023-11-19T09:14:51;5.00;;;3.53;;
15536;SDS011;7870;52.448;13.270;2023-11-19T09:17:17;5.80;;;3.47;;
15536;SDS011;7870;52.448;13.270;2023-11-19T09:19:44;5.30;;;3.13;;
15536;SDS011;7870;52.448;13.270;2023-11-19T09:22:12;4.13;;;2.72;;
15536;SDS011;7870;52.448;13.270;2023-11-19T09:24:38;4.50;;;2.72;;
15536;SDS011;7870;52.448;13.270;2023-11-19T09:27:05;3.17;;;2.45;;
15536;SDS011;7870;52.448;13.270;2023-11-19T09:29:31;3.65;;;2.40;;
15536;SDS011;7870;52.448;13.270;2023-11-19T09:31:59;5.72;;;2.42;;
15536;SDS011;7870;52.448;13.270;2023-11-19T09:34:26;4.45;;;2.40;;
15536;SDS011;7870;52.448;13.270;2023-11-19T09:36:52;3.50;;;2.05;;
15536;SDS011;7870;52.448;13.270;2023-11-19T09:39:19;5.70;;;2.20;;
15536;SDS011;7870;52.448;13.270;2023-11-19T09:41:46;4.53;;;2.25;;
15536;SDS011;7870;52.448;13.270;2023-11-19T09:44:13;4.53;;;2.20;;
15536;SDS011;7870;52.448;13.270;2023-11-19T09:46:41;5.15;;;2.20;;
15536;SDS011;7870;52.448;13.270;2023-11-19T09:49:08;5.32;;;2.60;;
15536;SDS011;7870;52.448;13.270;2023-11-19T09:51:38;8.05;;;2.45;;
15536;SDS011;7870;52.448;13.270;2023-11-19T09:54:05;6.28;;;2.00;;
15536;SDS011;7870;52.448;13.270;2023-11-19T09:56:31;4.97;;;1.80;;
15536;SDS011;7870;52.448;13.270;2023-11-19T09:58:59;7.72;;;2.17;;
15536;SDS011;7870;52.448;13.270;2023-11-19T10:01:26;4.43;;;1.92;;
15536;SDS011;7870;52.448;13.270;2023-11-19T10:03:55;5.03;;;1.80;;
15536;SDS011;7870;52.448;13.270;2023-11-19T10:06:22;4.35;;;2.10;;
15536;SDS011;7870;52.448;13.270;2023-11-19T10:08:49;5.10;;;2.17;;
15536;SDS011;7870;52.448;13.270;2023-11-19T10:11:15;9.43;;;3.13;;
15536;SDS011;7870;52.448;13.270;2023-11-19T10:13:43;8.95;;;2.70;;
15536;SDS011;7870;52.448;13.270;2023-11-19T10:16:14;7.22;;;2.33;;
15536;SDS011;7870;52.448;13.270;2023-11-19T10:18:47;8.13;;;2.33;;
15536;SDS011;7870;52.448;13.270;2023-11-19T10:21:19;6.53;;;2.55;;
15536;SDS011;7870;52.448;13.270;2023-11-19T10:23:49;8.90;;;2.63;;
15536;SDS011;7870;52.448;13.270;2023-11-19T10:26:22;9.75;;;3.33;;
15536;SDS011;7870;52.448;13.270;2023-11-19T10:28:49;8.45;;;3.33;;
15536;SDS011;7870;52.448;13.270;2023-11-19T10:31:17;10.75;;;2.85;;
15536;SDS011;7870;52.448;13.270;2023-11-19T10:33:44;7.88;;;2.20;;
15536;SDS011;7870;52.448;13.270;2023-11-19T10:36:12;8.48;;;2.50;;
15536;SDS011;7870;52.448;13.270;2023-11-19T10:38:39;9.32;;;2.47;;
15536;SDS011;7870;52.448;13.270;2023-11-19T10:41:06;6.50;;;2.00;;
15536;SDS011;7870;52.448;13.270;2023-11-19T10:43:42;12.20;;;2.83;;
15536;SDS011;7870;52.448;13.270;2023-11-19T10:46:11;9.88;;;2.45;;
15536;SDS011;7870;52.448;13.270;2023-11-19T10:48:38;8.65;;;2.40;;
15536;SDS011;7870;52.448;13.270;2023-11-19T10:51:05;7.40;;;2.30;;
15536;SDS011;7870;52.448;13.270;2023-11-19T10:53:37;10.77;;;2.88;;
15536;SDS011;7870;52.448;13.270;2023-11-19T10:56:05;6.72;;;2.22;;
15536;SDS011;7870;52.448;13.270;2023-11-19T10:58:34;9.77;;;2.63;;
15536;SDS011;7870;52.448;13.270;2023-11-19T11:01:05;15.60;;;4.25;;
15536;SDS011;7870;52.448;13.270;2023-11-19T11:03:38;12.35;;;2.67;;
15536;SDS011;7870;52.448;13.270;2023-11-19T11:06:06;9.23;;;2.47;;
15536;SDS011;7870;52.448;13.270;2023-11-19T11:08:34;10.40;;;2.92;;
15536;SDS011;7870;52.448;13.270;2023-11-19T11:11:02;10.25;;;3.00;;
15536;SDS011;7870;52.448;13.270;2023-11-19T11:13:30;10.30;;;2.63;;
15536;SDS011;7870;52.448;13.270;2023-11-19T11:15:57;18.65;;;3.97;;
15536;SDS011;7870;52.448;13.270;2023-11-19T11:18:24;12.70;;;3.08;;
15536;SDS011;7870;52.448;13.270;2023-11-19T11:20:56;13.43;;;4.15;;
15536;SDS011;7870;52.448;13.270;2023-11-19T11:31:45;14.77;;;4.07;;
15536;SDS011;7870;52.448;13.270;2023-11-19T11:38:06;12.93;;;3.75;;
15536;SDS011;7870;52.448;13.270;2023-11-19T11:40:17;12.38;;;4.35;;
15536;SDS011;7870;52.448;13.270;2023-11-19T11:42:44;11.88;;;3.40;;
15536;SDS011;7870;52.448;13.270;2023-11-19T11:45:11;13.75;;;3.88;;
15536;SDS011;7870;52.448;13.270;2023-11-19T11:50:10;14.85;;;3.53;;
15536;SDS011;7870;52.448;13.270;2023-11-19T11:55:25;11.57;;;4.20;;
15536;SDS011;7870;52.448;13.270;2023-11-19T11:57:51;15.18;;;3.22;;
15536;SDS011;7870;52.448;13.270;2023-11-19T12:00:21;11.85;;;4.13;;
15536;SDS011;7870;52.448;13.270;2023-11-19T12:02:50;11.45;;;4.00;;
15536;SDS011;7870;52.448;13.270;2023-11-19T12:05:16;9.38;;;3.28;;
15536;SDS011;7870;52.448;13.270;2023-11-19T12:07:54;18.23;;;5.13;;
15536;SDS011;7870;52.448;13.270;2023-11-19T12:10:22;12.25;;;3.25;;
15536;SDS011;7870;52.448;13.270;2023-11-19T12:12:53;18.73;;;4.20;;
15536;SDS011;7870;52.448;13.270;2023-11-19T12:15:20;14.13;;;3.30;;
15536;SDS011;7870;52.448;13.270;2023-11-19T12:20:19;10.80;;;3.58;;
15536;SDS011;7870;52.448;13.270;2023-11-19T12:22:50;11.57;;;3.05;;
15536;SDS011;7870;52.448;13.270;2023-11-19T12:25:17;18.77;;;4.25;;
15536;SDS011;7870;52.448;13.270;2023-11-19T12:27:47;18.35;;;3.90;;
15536;SDS011;7870;52.448;13.270;2023-11-19T12:30:21;17.48;;;5.15;;
15536;SDS011;7870;52.448;13.270;2023-11-19T12:32:50;14.85;;;4.80;;
15536;SDS011;7870;52.448;13.270;2023-11-19T12:35:17;15.93;;;4.32;;
15536;SDS011;7870;52.448;13.270;2023-11-19T12:37:47;14.27;;;3.70;;
15536;SDS011;7870;52.448;13.270;2023-11-19T12:40:16;13.50;;;4.38;;
15536;SDS011;7870;52.448;13.270;2023-11-19T12:42:49;16.67;;;4.22;;
15536;SDS011;7870;52.448;13.270;2023-11-19T12:45:16;18.30;;;4.45;;
15536;SDS011;7870;52.448;13.270;2023-11-19T12:47:43;14.32;;;4.45;;
15536;SDS011;7870;52.448;13.270;2023-11-19T12:50:10;17.48;;;4.93;;
15536;SDS011;7870;52.448;13.270;2023-11-19T12:52:37;22.48;;;5.03;;
15536;SDS011;7870;52.448;13.270;2023-11-19T12:57:56;18.75;;;5.22;;
15536;SDS011;7870;52.448;13.270;2023-11-19T13:00:24;16.33;;;5.05;;
15536;SDS011;7870;52.448;13.270;2023-11-19T13:02:53;16.25;;;4.78;;
15536;SDS011;7870;52.448;13.270;2023-11-19T13:05:21;19.70;;;4.43;;
15536;SDS011;7870;52.448;13.270;2023-11-19T13:10:28;16.20;;;4.97;;
15536;SDS011;7870;52.448;13.270;2023-11-19T13:13:01;17.95;;;4.65;;
15536;SDS011;7870;52.448;13.270;2023-11-19T13:15:32;17.52;;;4.93;;
15536;SDS011;7870;52.448;13.270;2023-11-19T13:17:59;17.02;;;4.68;;
15536;SDS011;7870;52.448;13.270;2023-11-19T13:20:26;13.82;;;3.63;;
15536;SDS011;7870;52.448;13.270;2023-11-19T13:22:54;17.33;;;3.63;;
15536;SDS011;7870;52.448;13.270;2023-11-19T13:25:20;16.80;;;5.00;;
15536;SDS011;7870;52.448;13.270;2023-11-19T13:27:47;19.20;;;5.18;;
15536;SDS011;7870;52.448;13.270;2023-11-19T13:30:14;16.42;;;4.22;;
15536;SDS011;7870;52.448;13.270;2023-11-19T13:32:44;16.25;;;4.45;;
15536;SDS011;7870;52.448;13.270;2023-11-19T13:35:12;17.92;;;5.55;;
15536;SDS011;7870;52.448;13.270;2023-11-19T13:37:39;19.77;;;5.53;;
15536;SDS011;7870;52.448;13.270;2023-11-19T13:40:06;18.33;;;4.05;;
15536;SDS011;7870;52.448;13.270;2023-11-19T13:42:34;21.25;;;5.45;;
15536;SDS011;7870;52.448;13.270;2023-11-19T13:45:00;17.65;;;5.57;;
15536;SDS011;7870;52.448;13.270;2023-11-19T13:47:27;16.65;;;5.63;;
15536;SDS011;7870;52.448;13.270;2023-11-19T13:49:53;17.10;;;4.70;;
15536;SDS011;7870;52.448;13.270;2023-11-19T13:52:20;23.85;;;5.60;;
15536;SDS011;7870;52.448;13.270;2023-11-19T13:54:46;21.27;;;5.07;;
15536;SDS011;7870;52.448;13.270;2023-11-19T13:57:13;16.75;;;4.95;;
15536;SDS011;7870;52.448;13.270;2023-11-19T13:59:40;14.23;;;4.85;;
15536;SDS011;7870;52.448;13.270;2023-11-19T14:02:07;19.85;;;5.80;;
15536;SDS011;7870;52.448;13.270;2023-11-19T14:04:34;16.95;;;5.80;;
15536;SDS011;7870;52.448;13.270;2023-11-19T14:07:01;22.67;;;5.47;;
15536;SDS011;7870;52.448;13.270;2023-11-19T14:09:28;19.20;;;5.45;;
15536;SDS011;7870;52.448;13.270;2023-11-19T14:11:55;18.42;;;5.35;;
15536;SDS011;7870;52.448;13.270;2023-11-19T14:14:22;20.33;;;5.18;;
15536;SDS011;7870;52.448;13.270;2023-11-19T14:16:48;25.17;;;5.00;;
15536;SDS011;7870;52.448;13.270;2023-11-19T14:19:15;20.30;;;6.05;;
15536;SDS011;7870;52.448;13.270;2023-11-19T14:21:41;19.00;;;4.50;;
15536;SDS011;7870;52.448;13.270;2023-11-19T14:24:08;17.02;;;4.47;;
15536;SDS011;7870;52.448;13.270;2023-11-19T14:26:34;18.85;;;5.15;;
15536;SDS011;7870;52.448;13.270;2023-11-19T14:29:01;17.42;;;4.70;;
15536;SDS011;7870;52.448;13.270;2023-11-19T14:31:28;19.05;;;4.40;;
15536;SDS011;7870;52.448;13.270;2023-11-19T14:33:55;22.38;;;5.32;;
15536;SDS011;7870;52.448;13.270;2023-11-19T14:36:22;16.50;;;5.35;;
15536;SDS011;7870;52.448;13.270;2023-11-19T14:38:49;19.42;;;4.50;;
15536;SDS011;7870;52.448;13.270;2023-11-19T14:41:17;20.23;;;4.80;;
15536;SDS011;7870;52.448;13.270;2023-11-19T14:43:43;16.23;;;4.45;;
15536;SDS011;7870;52.448;13.270;2023-11-19T14:46:10;17.67;;;5.65;;
15536;SDS011;7870;52.448;13.270;2023-11-19T14:48:36;19.30;;;4.38;;
15536;SDS011;7870;52.448;13.270;2023-11-19T14:51:03;21.00;;;5.82;;
15536;SDS011;7870;52.448;13.270;2023-11-19T14:53:30;21.17;;;4.82;;
15536;SDS011;7870;52.448;13.270;2023-11-19T14:55:56;26.50;;;5.03;;
15536;SDS011;7870;52.448;13.270;2023-11-19T14:58:23;21.45;;;5.18;;
15536;SDS011;7870;52.448;13.270;2023-11-19T15:00:49;19.27;;;4.13;;
15536;SDS011;7870;52.448;13.270;2023-11-19T15:03:16;17.00;;;4.70;;
15536;SDS011;7870;52.448;13.270;2023-11-19T15:05:45;19.15;;;4.55;;
15536;SDS011;7870;52.448;13.270;2023-11-19T15:08:14;15.38;;;5.00;;
15536;SDS011;7870;52.448;13.270;2023-11-19T15:10:42;20.40;;;5.22;;